Time;durP1;ratioP1;P1;durP2;ratioP2;P2;SDS_P1;SDS_P2;PMS_P1;PMS_P2;Temp;Humidity;BMP_temperature;BMP_pressure;BME280_temperature;BME280_humidity;BME280_pressure;Samples;Min_cycle;Max_cycle;Signal;HPM_P1;HPM_P2
2022/05/04 00:00:23;;;;;;;25.30;11.35;;;;;;;11.56;57.12;100960.07;1732757;82;25849;-57
2022/05/04 00:02:52;;;;;;;22.60;11.73;;;;;;;11.57;57.04;100958.22;1732075;82;25952;-57
2022/05/04 00:05:20;;;;;;;25.77;11.12;;;;;;;11.60;57.14;100963.34;1730647;81;25736;-57
2022/05/04 00:07:46;;;;;;;16.55;10.40;;;;;;;11.58;57.35;100960.80;1730499;82;25520;-58
2022/05/04 00:10:14;;;;;;;18.20;9.80;;;;;;;11.61;57.32;100966.91;1730745;82;25779;-58
2022/05/04 00:12:41;;;;;;;19.17;9.40;;;;;;;11.60;58.29;100963.34;1730618;82;25837;-57
2022/05/04 00:15:11;;;;;;;20.48;10.23;;;;;;;11.56;58.38;100965.46;1730664;82;46317;-57
2022/05/04 00:17:38;;;;;;;19.48;10.50;;;;;;;11.55;57.95;100965.61;1730653;82;25519;-57
2022/05/04 00:20:06;;;;;;;18.80;10.20;;;;;;;11.54;58.01;100962.55;1730755;82;25906;-57
2022/05/04 00:22:33;;;;;;;20.02;9.10;;;;;;;11.53;58.44;100968.92;1730750;82;26611;-57
2022/05/04 00:25:01;;;;;;;20.85;10.48;;;;;;;11.55;58.73;100962.91;1730860;81;25769;-58
2022/05/04 00:27:28;;;;;;;13.25;9.45;;;;;;;11.52;59.71;100965.87;1730771;82;28566;-58
2022/05/04 00:29:55;;;;;;;16.50;8.90;;;;;;;11.47;59.00;100964.09;1730708;82;26122;-57
2022/05/04 00:32:21;;;;;;;14.60;9.08;;;;;;;11.49;59.02;100967.01;1732987;82;26529;-57
2022/05/04 00:34:49;;;;;;;17.73;8.60;;;;;;;11.52;58.89;100969.41;1733558;82;25851;-57
2022/05/04 00:37:16;;;;;;;22.70;9.08;;;;;;;11.57;59.20;100961.78;1732615;82;25676;-57
2022/05/04 00:39:43;;;;;;;18.32;8.30;;;;;;;11.61;59.52;100970.44;1732493;82;27493;-57
2022/05/04 00:42:19;;;;;;;19.35;9.48;;;;;;;11.66;59.77;100974.91;1732304;82;25844;-57
2022/05/04 00:44:49;;;;;;;20.88;9.53;;;;;;;11.70;59.70;100976.34;1732436;82;25750;-58
2022/05/04 00:47:17;;;;;;;15.63;8.33;;;;;;;11.74;59.70;100981.80;1732183;82;26470;-58
2022/05/04 00:49:47;;;;;;;26.50;9.40;;;;;;;11.80;59.67;100980.91;1731879;82;25808;-58
2022/05/04 00:52:16;;;;;;;23.92;9.40;;;;;;;11.86;59.84;100979.86;1730608;82;27089;-58
2022/05/04 00:54:49;;;;;;;17.77;8.43;;;;;;;11.89;59.79;100978.20;1730536;82;25495;-59
2022/05/04 00:58:54;;;;;;;;;;;;;;;11.96;59.54;100979.86;1733354;82;25713;-58
2022/05/04 00:59:48;;;;;;;18.00;9.45;;;;;;;12.03;59.37;100989.11;1734549;81;25942;-57
2022/05/04 01:02:15;;;;;;;17.12;8.15;;;;;;;12.08;59.28;100986.00;1738121;81;25695;-57
2022/05/04 01:04:41;;;;;;;15.88;8.08;;;;;;;12.14;59.36;100990.84;1729264;82;27399;-57
2022/05/04 01:07:08;;;;;;;15.78;8.30;;;;;;;12.12;59.30;100990.13;1727311;82;25739;-58
2022/05/04 01:09:35;;;;;;;20.77;8.93;;;;;;;12.09;59.05;100992.26;1727397;82;25622;-58
2022/05/04 01:12:03;;;;;;;19.62;7.85;;;;;;;12.07;59.07;100988.34;1727519;82;25795;-58
2022/05/04 01:14:30;;;;;;;11.15;7.37;;;;;;;11.97;58.93;100986.12;1729894;81;25712;-57
2022/05/04 01:16:57;;;;;;;13.93;7.92;;;;;;;11.94;59.03;100985.04;1765041;80;28294;-57
2022/05/04 01:19:23;;;;;;;16.95;8.20;;;;;;;11.94;59.05;100977.79;1764911;81;25693;-57
2022/05/04 01:21:51;;;;;;;19.40;8.10;;;;;;;11.96;58.94;100983.06;1764911;80;25647;-59
2022/05/04 01:24:18;;;;;;;12.00;7.47;;;;;;;11.97;59.19;100983.42;1765046;80;25800;-58
2022/05/04 01:26:45;;;;;;;13.30;6.85;;;;;;;11.96;59.16;100984.41;1764978;81;25816;-58
2022/05/04 01:29:12;;;;;;;14.23;7.30;;;;;;;11.94;59.40;100983.69;1765049;80;27497;-58
2022/05/04 01:31:40;;;;;;;24.45;8.03;;;;;;;11.87;59.24;100986.09;1763984;81;25761;-58
2022/05/04 01:34:07;;;;;;;9.45;6.03;;;;;;;11.85;59.26;100984.89;1747066;81;25634;-59
2022/05/04 01:36:34;;;;;;;17.05;6.72;;;;;;;11.83;59.59;100984.68;1746892;82;27872;-58
2022/05/04 01:39:00;;;;;;;16.80;6.70;;;;;;;11.79;59.45;100985.42;1746912;81;25800;-60
2022/05/04 01:44:13;;;;;;;20.90;6.92;;;;;;;11.74;59.32;100983.66;1747163;82;25800;-58
2022/05/04 01:46:40;;;;;;;13.65;7.20;;;;;;;11.72;59.36;100990.54;1747228;81;26242;-57
2022/05/04 01:49:07;;;;;;;11.00;6.40;;;;;;;11.69;59.50;100988.62;1747009;81;25799;-57
2022/05/04 01:51:34;;;;;;;10.93;6.05;;;;;;;11.68;59.66;100988.26;1757396;81;25717;-58
2022/05/04 01:54:01;;;;;;;12.23;6.37;;;;;;;11.69;59.57;100984.58;1757398;81;27556;-58
2022/05/04 01:56:28;;;;;;;22.22;6.78;;;;;;;11.67;59.51;100987.90;1757240;81;25868;-58
2022/05/04 01:58:55;;;;;;;15.38;6.83;;;;;;;11.67;59.78;100990.59;1757388;81;25695;-57
2022/05/04 02:01:21;;;;;;;12.70;7.47;;;;;;;11.66;59.75;100993.77;1747860;81;26848;-57
2022/05/04 02:03:49;;;;;;;17.05;6.75;;;;;;;11.67;59.79;100994.64;1725430;82;25978;-57
2022/05/04 02:06:16;;;;;;;15.83;6.20;;;;;;;11.68;59.77;100997.18;1722506;83;29584;-57
2022/05/04 02:08:43;;;;;;;14.65;6.75;;;;;;;11.69;59.80;100996.20;1722454;83;25789;-57
2022/05/04 02:11:10;;;;;;;11.43;6.78;;;;;;;11.72;59.79;101004.02;1722567;82;25750;-57
2022/05/04 02:13:37;;;;;;;11.20;6.10;;;;;;;11.72;59.61;101006.71;1722508;83;25980;-58
2022/05/04 02:16:05;;;;;;;19.95;7.17;;;;;;;11.73;59.57;101007.55;1722631;82;25796;-58
2022/05/04 02:18:35;;;;;;;18.70;6.87;;;;;;;11.72;59.62;101014.80;1722785;83;27583;-58
2022/05/04 02:21:02;;;;;;;16.73;6.85;;;;;;;11.73;59.62;101012.46;1722445;83;25709;-57
2022/05/04 02:23:30;;;;;;;31.23;6.67;;;;;;;11.74;59.94;101013.30;1722644;82;25694;-57
2022/05/04 02:25:56;;;;;;;15.75;6.20;;;;;;;11.78;59.81;101023.30;1722659;82;26729;-58
2022/05/04 02:28:23;;;;;;;15.53;5.00;;;;;;;11.79;59.95;101019.63;1722639;82;25660;-58
2022/05/04 02:30:50;;;;;;;22.48;5.95;;;;;;;11.84;59.95;101034.88;1722793;82;27660;-57
2022/05/04 02:33:17;;;;;;;19.73;4.85;;;;;;;11.86;59.72;101032.42;1730045;82;26399;-58
2022/05/04 02:38:30;;;;;;;14.75;5.67;;;;;;;11.98;59.74;101041.75;1733195;82;27968;-57
2022/05/04 02:40:57;;;;;;;18.07;5.37;;;;;;;12.04;59.62;101037.17;1732896;82;25759;-57
2022/05/04 02:43:26;;;;;;;14.40;5.37;;;;;;;12.07;60.41;101028.78;1734661;82;27566;-57
2022/05/04 02:45:53;;;;;;;21.25;5.78;;;;;;;12.05;60.07;101032.14;1732971;82;25642;-58
2022/05/04 02:48:19;;;;;;;9.98;4.50;;;;;;;12.09;59.76;101042.98;1732946;82;25722;-58
2022/05/04 02:50:46;;;;;;;15.72;4.60;;;;;;;12.14;59.74;101043.44;1766443;80;25677;-58
2022/05/04 02:53:13;;;;;;;21.30;5.95;;;;;;;12.15;59.40;101031.62;1780303;80;25787;-58
2022/05/04 02:55:41;;;;;;;14.87;4.50;;;;;;;12.16;59.01;101039.24;1780041;80;27451;-56
2022/05/04 02:58:07;;;;;;;8.55;4.58;;;;;;;12.15;58.93;101039.72;1780701;80;25707;-57
2022/05/04 03:00:34;;;;;;;9.68;4.00;;;;;;;12.14;58.63;101031.78;1780500;80;25651;-57
2022/05/04 03:03:01;;;;;;;14.93;4.45;;;;;;;12.10;58.47;101031.21;1780477;80;25871;-58
2022/05/04 03:05:28;;;;;;;10.68;4.05;;;;;;;12.08;58.35;101047.18;1780344;80;25855;-57
2022/05/04 03:07:55;;;;;;;15.78;3.95;;;;;;;12.02;58.79;101045.89;1780358;79;27568;-58
2022/05/04 03:10:21;;;;;;;10.55;4.05;;;;;;;11.91;58.80;101041.44;1780284;80;25758;-58
2022/05/04 03:12:48;;;;;;;13.10;4.87;;;;;;;11.87;58.67;101047.61;1780332;80;25768;-58
2022/05/04 03:15:16;;;;;;;16.00;4.28;;;;;;;11.86;58.86;101040.98;1780394;80;25668;-57
2022/05/04 03:17:42;;;;;;;10.78;4.62;;;;;;;11.86;58.70;101046.38;1780329;79;25456;-58
2022/05/04 03:20:12;;;;;;;16.32;4.70;;;;;;;11.84;58.66;101049.22;1780637;79;27478;-58
2022/05/04 03:22:39;;;;;;;26.95;5.08;;;;;;;11.86;58.67;101043.20;1780212;80;25815;-57
2022/05/04 03:25:09;;;;;;;19.98;5.33;;;;;;;11.88;58.65;101042.55;1780351;80;25734;-58
2022/05/04 03:27:36;;;;;;;16.05;4.58;;;;;;;11.88;58.81;101045.24;1780135;80;27960;-58
2022/05/04 03:30:05;;;;;;;26.17;5.10;;;;;;;11.91;59.15;101050.87;1780381;80;25744;-58
2022/05/04 03:32:32;;;;;;;15.93;4.22;;;;;;;11.86;59.30;101043.20;1761843;80;27601;-59
2022/05/04 03:34:59;;;;;;;32.35;8.70;;;;;;;11.84;59.34;101050.57;1735185;82;25828;-59
2022/05/04 03:37:26;;;;;;;18.10;4.72;;;;;;;11.86;59.61;101048.59;1735386;82;25745;-57
2022/05/04 03:39:53;;;;;;;15.75;4.53;;;;;;;11.86;59.56;101049.95;1735481;82;25812;-58
2022/05/04 03:42:21;;;;;;;13.85;4.30;;;;;;;11.87;59.35;101054.83;1735499;82;27314;-58
2022/05/04 03:44:47;;;;;;;14.58;4.75;;;;;;;11.86;59.28;101057.16;1735553;82;27467;-58
2022/05/04 03:47:14;;;;;;;14.60;4.28;;;;;;;11.86;59.32;101060.72;1735566;82;25507;-58
2022/05/04 03:49:41;;;;;;;21.93;4.80;;;;;;;11.89;59.52;101066.33;1746946;80;25736;-58
2022/05/04 03:52:09;;;;;;;9.23;4.17;;;;;;;11.90;59.47;101070.23;1780358;79;25832;-57
2022/05/04 03:54:37;;;;;;;10.18;4.00;;;;;;;11.89;59.47;101073.91;1780359;80;25715;-57
2022/05/04 03:57:06;;;;;;;13.00;4.45;;;;;;;11.88;59.71;101080.28;1780355;79;27458;-57
2022/05/04 03:59:33;;;;;;;42.25;4.22;;;;;;;11.90;59.84;101090.45;1780328;79;25644;-57
2022/05/04 04:02:00;;;;;;;27.77;5.50;;;;;;;11.95;59.95;101083.80;1741950;80;25736;-57
2022/05/04 04:04:27;;;;;;;37.58;23.27;;;;;;;11.96;59.88;101072.03;1720068;82;25771;-57
2022/05/04 04:06:54;;;;;;;13.62;5.40;;;;;;;11.95;60.32;101061.72;1698502;84;25900;-57
2022/05/04 04:09:20;;;;;;;14.00;4.58;;;;;;;12.06;60.31;101072.91;1695208;83;28148;-58
2022/05/04 04:11:47;;;;;;;19.77;4.97;;;;;;;12.10;60.30;101082.45;1677926;85;25673;-57
2022/05/04 04:14:14;;;;;;;15.32;5.72;;;;;;;12.20;60.35;101077.93;1677869;85;25833;-58
2022/05/04 04:16:41;;;;;;;41.98;6.08;;;;;;;12.34;60.57;101079.84;1678020;85;25934;-58
2022/05/04 04:19:09;;;;;;;20.37;5.83;;;;;;;12.51;60.25;101087.75;1677985;84;25460;-58
2022/05/04 04:21:52;;;;;;;36.42;5.00;;;;;;;12.67;60.33;101079.94;1678024;85;27507;-58
2022/05/04 04:24:21;;;;;;;37.40;6.67;;;;;;;12.85;60.10;101088.67;1678383;84;25838;-58
2022/05/04 04:26:48;;;;;;;18.50;5.22;;;;;;;13.04;59.92;101077.49;1677918;85;25788;-57
2022/05/04 04:29:15;;;;;;;32.88;6.17;;;;;;;13.17;59.76;101081.23;1681351;84;25791;-58
2022/05/04 04:31:43;;;;;;;33.80;6.05;;;;;;;13.30;59.32;101088.03;1678115;84;25798;-57
2022/05/04 04:34:10;;;;;;;30.90;6.47;;;;;;;13.42;58.93;101081.97;1679651;85;27438;-57
2022/05/04 04:36:37;;;;;;;41.53;13.13;;;;;;;13.49;58.49;101086.30;1679567;85;25525;-58
2022/05/04 04:39:05;;;;;;;23.30;9.00;;;;;;;13.55;58.22;101086.20;1679634;85;25665;-58
2022/05/04 04:41:32;;;;;;;31.27;14.98;;;;;;;13.60;57.85;101083.90;1679508;85;26115;-58
2022/05/04 04:43:59;;;;;;;28.87;7.92;;;;;;;13.63;57.30;101088.18;1679428;84;25844;-57
2022/05/04 04:46:26;;;;;;;37.00;8.40;;;;;;;13.65;57.23;101093.78;1679424;85;27486;-57
2022/05/04 04:48:53;;;;;;;37.03;7.42;;;;;;;13.73;57.00;101100.65;1679221;84;25860;-58
2022/05/04 04:51:20;;;;;;;27.87;9.38;;;;;;;13.75;56.62;101091.02;1702474;82;25798;-57
2022/05/04 04:53:47;;;;;;;62.40;23.98;;;;;;;13.76;56.51;101093.57;1703820;83;25821;-56
2022/05/04 04:56:15;;;;;;;30.97;9.05;;;;;;;13.79;56.59;101088.39;1703943;83;25950;-57
2022/05/04 04:58:41;;;;;;;26.55;6.83;;;;;;;13.85;56.45;101080.18;1703912;83;27513;-57
2022/05/04 05:01:08;;;;;;;34.23;8.05;;;;;;;13.81;55.36;101081.47;1698270;82;25753;-57
2022/05/04 05:03:35;;;;;;;33.48;6.97;;;;;;;13.80;55.16;101083.81;1679534;84;25468;-57
2022/05/04 05:06:02;;;;;;;24.77;7.20;;;;;;;13.81;55.26;101070.66;1691589;84;25802;-58
2022/05/04 05:08:29;;;;;;;31.12;8.40;;;;;;;13.88;54.82;101078.51;1685069;85;25517;-58
2022/05/04 05:10:56;;;;;;;249.50;18.37;;;;;;;13.96;54.98;101089.94;1684894;85;27491;-57
2022/05/04 05:13:23;;;;;;;21.00;6.90;;;;;;;14.06;54.71;101098.34;1732333;82;25852;-57
2022/05/04 05:16:08;;;;;;;20.90;7.60;;;;;;;14.16;54.79;101106.42;1732587;82;25530;-58
2022/05/04 05:18:36;;;;;;;27.70;7.05;;;;;;;14.23;54.92;101110.21;1732986;82;25914;-57
2022/05/04 05:21:03;;;;;;;30.02;11.68;;;;;;;14.31;54.76;101106.72;1706913;82;25686;-57
2022/05/04 05:23:31;;;;;;;16.15;7.10;;;;;;;14.42;54.71;101104.81;1676282;85;27477;-57
2022/05/04 05:25:58;;;;;;;31.68;11.28;;;;;;;14.53;54.29;101110.00;1671801;85;25725;-57
2022/05/04 05:28:25;;;;;;;24.60;8.50;;;;;;;14.61;53.97;101114.14;1676452;85;26226;-58
2022/05/04 05:30:51;;;;;;;14.90;5.97;;;;;;;14.73;53.78;101113.95;1701349;84;25951;-58
2022/05/04 05:33:18;;;;;;;18.40;6.20;;;;;;;14.81;53.32;101120.80;1705230;83;26181;-58
2022/05/04 05:35:45;;;;;;;16.77;4.85;;;;;;;14.90;53.08;101124.41;1706387;84;27484;-57
2022/05/04 05:38:12;;;;;;;14.90;5.33;;;;;;;14.98;52.93;101126.70;1706149;84;25818;-57
2022/05/04 05:40:39;;;;;;;13.68;6.37;;;;;;;15.03;52.66;101131.13;1706494;84;25570;-57
2022/05/04 05:43:06;;;;;;;14.23;6.17;;;;;;;15.07;51.89;101139.80;1706403;84;25872;-57
2022/05/04 05:45:33;;;;;;;19.65;5.80;;;;;;;15.01;51.26;101137.23;1706608;84;26049;-57
2022/05/04 05:48:01;;;;;;;16.67;6.28;;;;;;;15.07;51.59;101143.02;1729971;82;27476;-57
2022/05/04 05:50:28;;;;;;;16.95;5.90;;;;;;;15.13;51.32;101140.55;1723973;82;25860;-57
2022/05/04 05:52:54;;;;;;;18.02;5.85;;;;;;;15.18;50.95;101148.20;1706517;84;25725;-57
2022/05/04 05:55:22;;;;;;;18.80;5.35;;;;;;;15.22;50.50;101150.92;1706438;84;26489;-58
2022/05/04 05:57:49;;;;;;;11.38;5.75;;;;;;;15.26;50.22;101150.97;1706522;84;26114;-57
2022/05/04 06:00:17;;;;;;;17.92;6.85;;;;;;;15.23;50.08;101144.50;1706520;84;27500;-58
2022/05/04 06:02:45;;;;;;;17.40;6.42;;;;;;;15.24;50.32;101154.34;1709694;83;25463;-58
2022/05/04 06:05:12;;;;;;;19.17;6.40;;;;;;;15.33;49.77;101153.88;1703174;83;25812;-57
2022/05/04 06:07:40;;;;;;;20.40;6.78;;;;;;;15.32;49.74;101156.27;1692618;84;25820;-58
2022/05/04 06:10:08;;;;;;;12.03;5.60;;;;;;;15.41;49.89;101155.33;1692505;84;25821;-57
2022/05/04 06:12:35;;;;;;;9.33;5.28;;;;;;;15.51;48.57;101167.92;1692530;84;27458;-58
2022/05/04 06:15:01;;;;;;;11.55;5.35;;;;;;;15.59;48.50;101167.45;1692492;84;26103;-58
2022/05/04 06:17:29;;;;;;;13.32;5.35;;;;;;;15.73;48.96;101156.53;1692558;84;25774;-58
2022/05/04 06:19:55;;;;;;;11.12;5.55;;;;;;;15.85;48.41;101161.72;1692446;84;25806;-58
2022/05/04 06:22:23;;;;;;;16.27;5.95;;;;;;;15.87;48.39;101160.53;1692531;84;26564;-57
2022/05/04 06:24:50;;;;;;;14.18;5.75;;;;;;;15.84;48.48;101161.37;1692478;84;28146;-58
2022/05/04 06:27:17;;;;;;;16.95;5.87;;;;;;;15.91;48.95;101153.75;1692910;84;26018;-57
2022/05/04 06:35:14;;;;;;;10.40;6.22;;;;;;;16.48;49.34;101167.22;1674617;85;25885;-58
2022/05/04 06:37:41;;;;;;;13.00;6.00;;;;;;;16.41;48.59;101168.38;1674715;85;29635;-58
2022/05/04 06:40:10;;;;;;;13.32;6.15;;;;;;;16.38;49.13;101174.65;1674633;85;25754;-58
2022/05/04 06:42:37;;;;;;;11.05;5.75;;;;;;;16.35;48.67;101174.47;1674949;85;25768;-58
2022/05/04 06:45:07;;;;;;;19.42;6.30;;;;;;;16.26;48.71;101178.17;1674713;85;25822;-57
2022/05/04 06:47:33;;;;;;;13.98;5.83;;;;;;;16.20;48.35;101182.39;1674840;85;25540;-57
2022/05/04 06:50:00;;;;;;;13.48;6.15;;;;;;;16.20;48.58;101174.77;1674781;85;27505;-59
2022/05/04 06:52:27;;;;;;;15.05;6.65;;;;;;;16.15;48.29;101182.53;1639849;86;26403;-58
2022/05/04 06:54:53;;;;;;;13.65;7.35;;;;;;;16.11;48.63;101184.72;1665847;86;25715;-58
2022/05/04 06:57:21;;;;;;;14.90;6.00;;;;;;;16.00;49.06;101178.25;1702249;84;25877;-57
2022/05/04 06:59:47;;;;;;;14.33;6.47;;;;;;;16.06;49.58;101187.09;1702140;83;25658;-57
2022/05/04 07:02:15;;;;;;;13.03;6.85;;;;;;;16.06;49.58;101189.80;1689886;84;27580;-58
2022/05/04 07:04:42;;;;;;;15.10;6.72;;;;;;;15.97;50.13;101198.39;1686755;82;26043;-58
2022/05/04 07:07:09;;;;;;;11.70;6.45;;;;;;;15.86;50.37;101184.61;1730308;82;25811;-58
2022/05/04 07:09:36;;;;;;;11.78;5.97;;;;;;;15.88;50.34;101179.00;1730342;82;25831;-57
2022/05/04 07:12:04;;;;;;;24.40;7.00;;;;;;;15.91;50.49;101174.11;1730324;82;25697;-58
2022/05/04 07:14:31;;;;;;;15.58;6.90;;;;;;;15.93;50.06;101179.39;1730138;82;27469;-58
2022/05/04 07:16:58;;;;;;;12.95;6.65;;;;;;;15.92;50.34;101188.54;1730203;82;25902;-58
2022/05/04 07:19:25;;;;;;;15.05;6.90;;;;;;;15.96;50.57;101187.19;1730213;82;25732;-59
2022/05/04 07:21:52;;;;;;;18.98;6.72;;;;;;;15.90;50.48;101196.84;1730257;82;25788;-58
2022/05/04 07:24:18;;;;;;;16.75;7.15;;;;;;;15.87;50.84;101207.17;1730090;82;25804;-57
2022/05/04 07:26:45;;;;;;;10.43;6.45;;;;;;;15.94;51.23;101200.09;1730164;82;27489;-57
2022/05/04 07:29:12;;;;;;;13.28;6.42;;;;;;;16.06;51.16;101201.48;1730078;82;25701;-58
2022/05/04 07:31:39;;;;;;;12.18;6.00;;;;;;;16.19;50.93;101202.92;1731567;81;25856;-57
2022/05/04 07:34:06;;;;;;;16.73;6.78;;;;;;;16.47;50.21;101205.41;1762692;81;25879;-57
2022/05/04 07:36:34;;;;;;;18.15;7.28;;;;;;;16.71;49.61;101215.50;1762635;80;25973;-57
2022/05/04 07:39:00;;;;;;;12.45;6.83;;;;;;;16.85;48.41;101218.92;1762687;81;28511;-58
2022/05/04 07:44:14;;;;;;;20.57;6.53;;;;;;;17.09;48.57;101221.36;1762507;80;25432;-57
2022/05/04 07:46:44;;;;;;;11.55;6.62;;;;;;;17.11;47.87;101226.64;1762524;80;25797;-57
2022/05/04 07:49:12;;;;;;;16.77;5.97;;;;;;;16.90;46.53;101223.86;1763094;80;25995;-57
2022/05/04 07:51:39;;;;;;;18.25;6.40;;;;;;;16.76;46.86;101221.80;1773157;80;28191;-58
2022/05/04 07:54:05;;;;;;;16.65;6.80;;;;;;;16.71;47.34;101231.28;1772919;80;25754;-58
2022/05/04 07:56:32;;;;;;;14.65;6.15;;;;;;;16.74;47.69;101224.66;1773218;80;25786;-58
2022/05/04 07:58:59;;;;;;;14.07;6.17;;;;;;;16.88;48.00;101230.83;1773182;80;27865;-58
2022/05/04 08:04:17;;;;;;;14.50;6.55;;;;;;;17.24;47.82;101226.98;1773567;80;27616;-57
2022/05/04 08:06:46;;;;;;;16.57;6.87;;;;;;;17.38;47.47;101227.34;1781499;79;25792;-57
2022/05/04 08:09:13;;;;;;;15.25;5.85;;;;;;;17.33;46.71;101227.33;1783862;80;25720;-58
2022/05/04 08:11:43;;;;;;;11.38;6.42;;;;;;;17.38;47.18;101230.05;1783953;80;25715;-57
2022/05/04 08:14:12;;;;;;;12.40;6.80;;;;;;;17.48;47.12;101223.42;1783897;79;25498;-57
2022/05/04 08:16:39;;;;;;;11.60;6.22;;;;;;;17.71;46.95;101233.58;1784050;79;28092;-58
2022/05/04 08:19:07;;;;;;;8.73;5.75;;;;;;;17.97;46.70;101229.33;1783658;79;25660;-58
2022/05/04 08:21:37;;;;;;;11.80;5.83;;;;;;;18.35;46.16;101227.84;1783925;79;25767;-58
2022/05/04 08:24:06;;;;;;;17.45;5.30;;;;;;;18.68;45.23;101227.69;1783895;79;26673;-58
2022/05/04 08:26:33;;;;;;;10.72;5.35;;;;;;;18.91;44.48;101233.17;1783929;79;25818;-58
2022/05/04 08:29:00;;;;;;;15.45;5.92;;;;;;;19.13;43.86;101232.05;1783849;80;27465;-58
2022/05/04 08:31:28;;;;;;;15.83;6.03;;;;;;;19.16;43.23;101228.94;1783875;80;26387;-58
2022/05/04 08:33:55;;;;;;;21.02;5.28;;;;;;;19.12;43.46;101229.82;1724750;80;25695;-58
2022/05/04 08:36:22;;;;;;;10.70;5.58;;;;;;;19.06;42.29;101227.30;1723526;83;25857;-58
2022/05/04 08:38:48;;;;;;;17.27;5.30;;;;;;;19.04;42.75;101223.93;1723809;82;25791;-58
2022/05/04 08:41:15;;;;;;;15.55;4.25;;;;;;;19.21;42.95;101219.19;1723722;81;27631;-58
2022/05/04 08:43:44;;;;;;;12.03;4.10;;;;;;;19.58;42.77;101215.80;1723565;82;25760;-57
2022/05/04 08:46:20;;;;;;;12.05;4.35;;;;;;;19.93;42.04;101211.56;1723712;81;26313;-57
2022/05/04 08:48:45;;;;;;;10.70;3.95;;;;;;;20.23;40.57;101203.34;1723504;81;25916;-57
2022/05/04 08:51:12;;;;;;;6.83;3.95;;;;;;;20.52;39.65;101204.35;1740772;82;25743;-57
2022/05/04 08:53:43;;;;;;;6.95;3.62;;;;;;;20.63;37.80;101204.36;1742821;82;29615;-58
2022/05/04 08:56:09;;;;;;;15.45;3.67;;;;;;;20.72;37.73;101207.84;1742649;82;25905;-58
2022/05/04 08:58:37;;;;;;;9.30;3.20;;;;;;;20.80;37.67;101210.48;1742473;82;25675;-58
2022/05/04 09:01:05;;;;;;;13.83;3.52;;;;;;;20.84;37.23;101215.91;1742491;82;26615;-58
2022/05/04 09:03:33;;;;;;;14.23;3.50;;;;;;;20.98;37.68;101219.60;1740304;82;25710;-59
2022/05/04 09:06:01;;;;;;;10.58;3.33;;;;;;;21.18;36.90;101217.09;1736354;82;27634;-57
2022/05/04 09:08:28;;;;;;;8.20;3.37;;;;;;;21.50;36.56;101212.63;1729923;82;26131;-58
2022/05/04 09:10:54;;;;;;;7.85;3.67;;;;;;;21.77;35.74;101220.55;1730493;82;25720;-58
2022/05/04 09:13:21;;;;;;;11.75;3.85;;;;;;;21.76;34.75;101216.11;1730157;82;25719;-58
2022/05/04 09:15:51;;;;;;;9.50;4.20;;;;;;;21.84;34.66;101220.06;1730080;82;25475;-58
2022/05/04 09:18:17;;;;;;;9.35;3.83;;;;;;;22.00;34.30;101213.42;1729997;82;29289;-58
2022/05/04 09:20:48;;;;;;;14.40;4.25;;;;;;;22.30;34.56;101206.33;1730069;81;27299;-58
2022/05/04 09:23:30;;;;;;;5.72;3.25;;;;;;;22.75;34.60;101208.62;1729793;82;25765;-58
2022/05/04 09:26:07;;;;;;;12.88;3.90;;;;;;;23.22;34.14;101203.23;1730239;82;25827;-58
2022/05/04 09:28:35;;;;;;;12.90;3.37;;;;;;;23.66;33.16;101202.83;1723200;82;26217;-58
2022/05/04 09:31:07;;;;;;;8.18;3.40;;;;;;;23.98;31.43;101203.00;1713156;83;28182;-58
2022/05/04 09:33:37;;;;;;;65.03;5.78;;;;;;;24.34;30.45;101193.37;1729562;82;26225;-59
2022/05/04 09:36:05;;;;;;;8.43;2.85;;;;;;;24.75;29.32;101193.51;1736200;82;25766;-58
2022/05/04 09:46:55;;;;;;;8.43;2.80;;;;;;;25.23;27.16;101186.64;1629033;86;26014;-58
2022/05/04 09:49:31;;;;;;;8.68;3.08;;;;;;;24.74;28.48;101198.72;1694467;82;25459;-58
2022/05/04 09:52:04;;;;;;;10.45;2.92;;;;;;;24.49;28.42;101193.10;1732676;82;26996;-58
2022/05/04 09:54:31;;;;;;;11.00;3.07;;;;;;;24.09;29.15;101194.62;1732915;82;25847;-58
2022/05/04 09:57:04;;;;;;;6.30;2.62;;;;;;;23.79;29.88;101193.73;1732546;82;28999;-58
2022/05/04 09:59:34;;;;;;;4.78;2.70;;;;;;;23.34;30.36;101187.01;1732545;82;25734;-58
2022/05/04 10:02:07;;;;;;;9.15;3.08;;;;;;;23.16;30.49;101192.25;1731163;82;25929;-58
2022/05/04 10:04:34;;;;;;;7.53;3.00;;;;;;;22.83;30.62;101194.71;1730262;82;26530;-57
2022/05/04 10:07:03;;;;;;;5.60;2.55;;;;;;;22.64;30.95;101196.87;1716670;82;25656;-58
2022/05/04 10:09:32;;;;;;;6.62;2.50;;;;;;;22.64;31.02;101190.88;1708127;84;27477;-58
2022/05/04 10:12:00;;;;;;;5.92;2.33;;;;;;;23.14;30.51;101193.30;1706902;84;25821;-58
2022/05/04 10:14:29;;;;;;;4.55;2.50;;;;;;;23.50;29.81;101193.13;1708088;83;25770;-58
2022/05/04 10:17:11;;;;;;;4.90;2.62;;;;;;;23.55;29.38;101187.82;1708461;84;25848;-58
2022/05/04 10:20:09;;;;;;;7.80;2.70;;;;;;;23.64;29.68;101182.42;1708169;83;25698;-59
2022/05/04 10:22:40;;;;;;;5.53;2.67;;;;;;;23.93;28.68;101175.31;1708574;84;27580;-59
2022/05/04 10:25:09;;;;;;;11.43;2.55;;;;;;;24.30;28.02;101169.60;1708166;83;25505;-58
2022/05/04 10:27:43;;;;;;;11.20;2.10;;;;;;;24.61;28.88;101176.75;1708326;84;25639;-60
2022/05/04 10:30:30;;;;;;;9.33;2.10;;;;;;;25.45;26.70;101168.36;1708144;84;25827;-59
2022/05/04 10:32:59;;;;;;;10.10;2.08;;;;;;;25.57;25.54;101169.31;1703309;83;25730;-58
2022/05/04 10:35:48;;;;;;;3.60;2.00;;;;;;;25.31;25.90;101172.59;1700431;83;27456;-59
2022/05/04 10:38:29;;;;;;;4.37;2.30;;;;;;;25.11;26.23;101169.98;1700252;83;25521;-60
2022/05/04 10:40:59;;;;;;;6.28;2.40;;;;;;;25.01;26.28;101171.03;1700162;84;25726;-59
2022/05/04 10:43:45;;;;;;;10.63;2.47;;;;;;;24.81;26.25;101172.02;1700562;84;26741;-60
2022/05/04 10:46:20;;;;;;;5.67;2.10;;;;;;;24.41;26.10;101172.73;1700369;84;25794;-59
2022/05/04 10:49:03;;;;;;;6.55;2.22;;;;;;;24.18;26.83;101169.44;1700427;83;27421;-58
2022/05/04 10:51:33;;;;;;;14.30;2.52;;;;;;;23.99;26.82;101171.72;1679524;85;26202;-58
2022/05/04 10:54:10;;;;;;;4.75;2.35;;;;;;;23.78;26.60;101178.30;1679970;85;25512;-59
2022/05/04 10:56:50;;;;;;;6.17;2.37;;;;;;;23.49;26.92;101178.53;1679393;84;25806;-59
2022/05/04 10:59:33;;;;;;;11.43;2.30;;;;;;;23.47;27.02;101179.30;1679505;84;25512;-59
2022/05/04 11:02:06;;;;;;;7.00;2.60;;;;;;;23.59;26.95;101175.37;1690380;83;27487;-59
2022/05/04 11:04:34;;;;;;;;;;;;;;;23.83;25.90;101176.60;1700534;84;26171;-57
2022/05/04 11:07:07;;;;;;;11.83;3.80;;;;;;;23.87;25.44;101177.84;1719927;82;25779;-57
2022/05/04 11:09:42;;;;;;;8.58;2.70;;;;;;;24.58;25.04;101171.16;1743564;82;25788;-59
2022/05/04 11:12:11;;;;;;;11.45;2.95;;;;;;;25.15;23.78;101167.10;1744052;81;25797;-59
2022/05/04 11:14:38;;;;;;;5.47;2.67;;;;;;;26.14;24.30;101159.19;1743719;82;28340;-58
2022/05/04 11:17:14;;;;;;;9.08;2.22;;;;;;;26.99;23.02;101160.97;1743789;82;25787;-58
2022/05/04 11:19:47;;;;;;;9.95;2.52;;;;;;;27.57;22.53;101152.16;1743607;82;25828;-58
2022/05/04 11:22:17;;;;;;;4.45;2.12;;;;;;;27.60;22.12;101144.78;1743739;82;25910;-59
2022/05/04 11:24:44;;;;;;;6.35;2.15;;;;;;;27.48;21.36;101145.63;1743557;82;25692;-59
2022/05/04 11:27:16;;;;;;;17.05;2.77;;;;;;;27.94;21.06;101140.30;1743671;82;27480;-59
2022/05/04 11:29:44;;;;;;;10.45;3.30;;;;;;;28.69;20.53;101136.78;1743653;82;25760;-59
2022/05/04 11:32:19;;;;;;;8.63;2.35;;;;;;;29.20;20.17;101132.16;1741512;82;25747;-59
2022/05/04 11:34:41;;;;;;;7.30;2.35;;;;;;;29.76;19.98;101127.19;1735115;82;25786;-59
2022/05/04 11:37:11;;;;;;;9.38;2.25;;;;;;;30.38;19.04;101131.27;1735173;82;25733;-60
2022/05/04 11:39:40;;;;;;;6.58;2.15;;;;;;;30.04;19.23;101121.73;1735132;82;27523;-59
2022/05/04 11:42:08;;;;;;;5.90;2.15;;;;;;;30.64;19.37;101123.23;1735061;82;25756;-58
2022/05/04 11:44:39;;;;;;;14.40;1.90;;;;;;;30.89;18.57;101113.73;1735290;82;25728;-58
2022/05/04 11:47:08;;;;;;;7.20;1.80;;;;;;;31.45;18.04;101119.45;1735074;82;25771;-58
2022/05/04 11:49:36;;;;;;;25.80;2.67;;;;;;;31.58;17.45;101119.52;1744300;80;25721;-58